sensor_id;sensor_type;location;lat;lon;timestamp;temperature;humidity
28484;DHT22;15704;48.834;8.736;2022-07-29T00:00:04;18.20;99.90
28484;DHT22;15704;48.834;8.736;2022-07-29T00:03:47;18.20;99.90
28484;DHT22;15704;48.834;8.736;2022-07-29T00:07:31;18.20;99.90
28484;DHT22;15704;48.834;8.736;2022-07-29T00:11:14;18.20;99.90
28484;DHT22;15704;48.834;8.736;2022-07-29T00:14:57;18.20;99.90
28484;DHT22;15704;48.834;8.736;2022-07-29T00:18:40;18.20;99.90
28484;DHT22;15704;48.834;8.736;2022-07-29T00:22:23;18.20;99.90
28484;DHT22;15704;48.834;8.736;2022-07-29T00:26:06;18.10;99.90
28484;DHT22;15704;48.834;8.736;2022-07-29T00:29:49;18.10;99.90
28484;DHT22;15704;48.834;8.736;2022-07-29T00:33:32;18.10;99.90
28484;DHT22;15704;48.834;8.736;2022-07-29T00:37:16;18.10;99.90
28484;DHT22;15704;48.834;8.736;2022-07-29T00:40:59;18.10;99.90
28484;DHT22;15704;48.834;8.736;2022-07-29T00:44:42;18.10;99.90
28484;DHT22;15704;48.834;8.736;2022-07-29T00:48:24;18.10;99.90
28484;DHT22;15704;48.834;8.736;2022-07-29T00:52:08;18.00;99.90
28484;DHT22;15704;48.834;8.736;2022-07-29T00:55:53;18.00;99.90
28484;DHT22;15704;48.834;8.736;2022-07-29T00:59:36;18.00;99.90
28484;DHT22;15704;48.834;8.736;2022-07-29T01:03:19;18.10;99.90
28484;DHT22;15704;48.834;8.736;2022-07-29T01:07:02;18.10;99.90
28484;DHT22;15704;48.834;8.736;2022-07-29T01:10:46;18.20;99.90
28484;DHT22;15704;48.834;8.736;2022-07-29T01:14:31;18.20;99.90
28484;DHT22;15704;48.834;8.736;2022-07-29T01:18:17;18.20;99.90
28484;DHT22;15704;48.834;8.736;2022-07-29T01:22:16;18.20;99.90
28484;DHT22;15704;48.834;8.736;2022-07-29T01:26:18;18.10;99.90
28484;DHT22;15704;48.834;8.736;2022-07-29T01:30:08;18.10;99.90
28484;DHT22;15704;48.834;8.736;2022-07-29T01:33:57;18.00;99.90
28484;DHT22;15704;48.834;8.736;2022-07-29T01:37:45;18.00;99.90
28484;DHT22;15704;48.834;8.736;2022-07-29T01:41:32;17.90;99.90
28484;DHT22;15704;48.834;8.736;2022-07-29T01:45:19;17.90;99.90
28484;DHT22;15704;48.834;8.736;2022-07-29T01:49:10;17.80;99.90
28484;DHT22;15704;48.834;8.736;2022-07-29T01:52:56;17.80;99.90
28484;DHT22;15704;48.834;8.736;2022-07-29T01:56:42;17.80;99.90
28484;DHT22;15704;48.834;8.736;2022-07-29T02:00:27;17.80;99.90
28484;DHT22;15704;48.834;8.736;2022-07-29T02:04:12;17.80;99.90
28484;DHT22;15704;48.834;8.736;2022-07-29T02:08:11;17.70;99.90
28484;DHT22;15704;48.834;8.736;2022-07-29T02:11:55;17.70;99.90
28484;DHT22;15704;48.834;8.736;2022-07-29T02:15:42;17.80;99.90
28484;DHT22;15704;48.834;8.736;2022-07-29T02:19:26;17.80;99.90
28484;DHT22;15704;48.834;8.736;2022-07-29T02:23:10;17.90;99.90
28484;DHT22;15704;48.834;8.736;2022-07-29T02:26:56;17.90;99.90
28484;DHT22;15704;48.834;8.736;2022-07-29T02:30:43;18.00;99.90
28484;DHT22;15704;48.834;8.736;2022-07-29T02:34:27;18.10;99.90
28484;DHT22;15704;48.834;8.736;2022-07-29T02:38:13;18.20;99.90
28484;DHT22;15704;48.834;8.736;2022-07-29T02:42:15;18.20;99.90
28484;DHT22;15704;48.834;8.736;2022-07-29T02:46:03;18.20;99.90
28484;DHT22;15704;48.834;8.736;2022-07-29T02:50:11;18.20;99.90
28484;DHT22;15704;48.834;8.736;2022-07-29T02:53:57;18.10;99.90
28484;DHT22;15704;48.834;8.736;2022-07-29T02:57:44;18.10;99.90
28484;DHT22;15704;48.834;8.736;2022-07-29T03:01:40;18.00;99.90
28484;DHT22;15704;48.834;8.736;2022-07-29T03:05:24;18.00;99.90
28484;DHT22;15704;48.834;8.736;2022-07-29T03:09:10;18.00;99.90
28484;DHT22;15704;48.834;8.736;2022-07-29T03:12:54;18.00;99.90
28484;DHT22;15704;48.834;8.736;2022-07-29T03:16:41;18.00;99.90
28484;DHT22;15704;48.834;8.736;2022-07-29T03:20:25;18.00;99.90
28484;DHT22;15704;48.834;8.736;2022-07-29T03:24:07;18.00;99.90
28484;DHT22;15704;48.834;8.736;2022-07-29T03:27:50;18.10;99.90
28484;DHT22;15704;48.834;8.736;2022-07-29T03:31:33;18.20;99.90
28484;DHT22;15704;48.834;8.736;2022-07-29T03:35:17;18.30;99.90
28484;DHT22;15704;48.834;8.736;2022-07-29T03:39:01;18.30;99.90
28484;DHT22;15704;48.834;8.736;2022-07-29T03:42:45;18.30;99.90
28484;DHT22;15704;48.834;8.736;2022-07-29T03:46:31;18.20;99.90
28484;DHT22;15704;48.834;8.736;2022-07-29T03:50:14;18.20;99.90
28484;DHT22;15704;48.834;8.736;2022-07-29T03:53:59;18.10;99.90
28484;DHT22;15704;48.834;8.736;2022-07-29T03:57:50;18.00;99.90
28484;DHT22;15704;48.834;8.736;2022-07-29T04:01:32;18.00;99.90
28484;DHT22;15704;48.834;8.736;2022-07-29T04:05:17;18.00;99.90
28484;DHT22;15704;48.834;8.736;2022-07-29T04:09:01;18.00;99.90
28484;DHT22;15704;48.834;8.736;2022-07-29T04:12:43;18.00;99.90
28484;DHT22;15704;48.834;8.736;2022-07-29T04:16:26;18.00;99.90
28484;DHT22;15704;48.834;8.736;2022-07-29T04:20:10;17.90;99.90
28484;DHT22;15704;48.834;8.736;2022-07-29T04:23:54;17.90;99.90
28484;DHT22;15704;48.834;8.736;2022-07-29T04:27:38;17.90;99.90
28484;DHT22;15704;48.834;8.736;2022-07-29T04:31:41;17.90;99.90
28484;DHT22;15704;48.834;8.736;2022-07-29T04:35:23;17.90;99.90
28484;DHT22;15704;48.834;8.736;2022-07-29T04:39:06;18.00;99.90
28484;DHT22;15704;48.834;8.736;2022-07-29T04:42:50;18.10;99.90
28484;DHT22;15704;48.834;8.736;2022-07-29T04:46:34;18.30;99.90
28484;DHT22;15704;48.834;8.736;2022-07-29T04:50:18;18.50;99.90
28484;DHT22;15704;48.834;8.736;2022-07-29T04:54:01;18.50;99.90
28484;DHT22;15704;48.834;8.736;2022-07-29T04:57:43;18.60;99.90
28484;DHT22;15704;48.834;8.736;2022-07-29T05:01:28;18.60;99.90
28484;DHT22;15704;48.834;8.736;2022-07-29T05:05:10;18.80;99.90
28484;DHT22;15704;48.834;8.736;2022-07-29T05:08:55;18.90;99.90
28484;DHT22;15704;48.834;8.736;2022-07-29T05:12:38;19.10;99.90
28484;DHT22;15704;48.834;8.736;2022-07-29T05:16:21;19.30;99.90
28484;DHT22;15704;48.834;8.736;2022-07-29T05:20:07;19.40;99.90
28484;DHT22;15704;48.834;8.736;2022-07-29T05:23:49;19.60;99.90
28484;DHT22;15704;48.834;8.736;2022-07-29T05:27:32;19.80;99.90
28484;DHT22;15704;48.834;8.736;2022-07-29T05:31:15;20.00;99.90
28484;DHT22;15704;48.834;8.736;2022-07-29T05:34:58;20.20;99.90
28484;DHT22;15704;48.834;8.736;2022-07-29T05:38:42;20.30;99.90
28484;DHT22;15704;48.834;8.736;2022-07-29T05:42:25;20.40;99.90
28484;DHT22;15704;48.834;8.736;2022-07-29T05:46:08;20.50;99.90
28484;DHT22;15704;48.834;8.736;2022-07-29T05:49:51;20.50;99.90
28484;DHT22;15704;48.834;8.736;2022-07-29T05:53:33;20.60;99.90
28484;DHT22;15704;48.834;8.736;2022-07-29T05:57:18;20.60;99.90
28484;DHT22;15704;48.834;8.736;2022-07-29T06:01:01;20.60;99.90
28484;DHT22;15704;48.834;8.736;2022-07-29T06:04:44;20.80;99.90
28484;DHT22;15704;48.834;8.736;2022-07-29T06:08:27;21.00;99.90
28484;DHT22;15704;48.834;8.736;2022-07-29T06:12:09;21.20;99.90
28484;DHT22;15704;48.834;8.736;2022-07-29T06:15:53;21.50;99.90
28484;DHT22;15704;48.834;8.736;2022-07-29T06:19:36;21.70;99.90
28484;DHT22;15704;48.834;8.736;2022-07-29T06:23:19;22.00;99.90
28484;DHT22;15704;48.834;8.736;2022-07-29T06:27:02;22.10;99.90
28484;DHT22;15704;48.834;8.736;2022-07-29T06:30:45;22.30;99.90
28484;DHT22;15704;48.834;8.736;2022-07-29T06:34:29;22.40;99.90
28484;DHT22;15704;48.834;8.736;2022-07-29T06:38:12;22.70;99.90
28484;DHT22;15704;48.834;8.736;2022-07-29T06:42:12;22.50;99.90
28484;DHT22;15704;48.834;8.736;2022-07-29T06:45:55;22.30;99.90
28484;DHT22;15704;48.834;8.736;2022-07-29T06:49:39;21.80;99.90
28484;DHT22;15704;48.834;8.736;2022-07-29T06:53:22;21.80;99.90
28484;DHT22;15704;48.834;8.736;2022-07-29T06:57:05;21.90;99.90
28484;DHT22;15704;48.834;8.736;2022-07-29T07:00:48;21.80;99.90
28484;DHT22;15704;48.834;8.736;2022-07-29T07:04:30;22.00;99.90
28484;DHT22;15704;48.834;8.736;2022-07-29T07:08:14;21.90;99.90
28484;DHT22;15704;48.834;8.736;2022-07-29T07:11:58;21.70;99.90
28484;DHT22;15704;48.834;8.736;2022-07-29T07:15:40;22.00;99.90
28484;DHT22;15704;48.834;8.736;2022-07-29T07:19:23;22.30;99.90
28484;DHT22;15704;48.834;8.736;2022-07-29T07:23:06;22.40;99.90
28484;DHT22;15704;48.834;8.736;2022-07-29T07:26:50;23.00;99.90
28484;DHT22;15704;48.834;8.736;2022-07-29T07:30:33;23.30;99.90
28484;DHT22;15704;48.834;8.736;2022-07-29T07:34:15;23.20;99.90
28484;DHT22;15704;48.834;8.736;2022-07-29T07:38:09;23.10;99.90
28484;DHT22;15704;48.834;8.736;2022-07-29T07:41:53;23.30;99.90
28484;DHT22;15704;48.834;8.736;2022-07-29T07:45:36;23.40;99.90
28484;DHT22;15704;48.834;8.736;2022-07-29T07:49:19;23.40;99.90
28484;DHT22;15704;48.834;8.736;2022-07-29T07:53:02;23.40;99.90
28484;DHT22;15704;48.834;8.736;2022-07-29T07:56:44;23.50;99.90
28484;DHT22;15704;48.834;8.736;2022-07-29T08:00:32;24.00;99.90
28484;DHT22;15704;48.834;8.736;2022-07-29T08:04:15;24.10;99.90
28484;DHT22;15704;48.834;8.736;2022-07-29T08:08:05;24.20;99.90
28484;DHT22;15704;48.834;8.736;2022-07-29T08:11:48;24.30;99.90
28484;DHT22;15704;48.834;8.736;2022-07-29T08:15:34;24.20;99.90
28484;DHT22;15704;48.834;8.736;2022-07-29T08:19:17;24.40;99.90
28484;DHT22;15704;48.834;8.736;2022-07-29T08:22:59;24.40;99.90
28484;DHT22;15704;48.834;8.736;2022-07-29T08:26:42;25.10;99.90
28484;DHT22;15704;48.834;8.736;2022-07-29T08:30:25;25.00;99.90
28484;DHT22;15704;48.834;8.736;2022-07-29T08:34:09;25.20;99.90
28484;DHT22;15704;48.834;8.736;2022-07-29T08:37:53;24.80;99.90
28484;DHT22;15704;48.834;8.736;2022-07-29T08:41:35;25.10;99.90
28484;DHT22;15704;48.834;8.736;2022-07-29T08:45:18;25.10;99.90
28484;DHT22;15704;48.834;8.736;2022-07-29T08:49:02;25.00;99.90
28484;DHT22;15704;48.834;8.736;2022-07-29T08:52:47;24.90;99.90
28484;DHT22;15704;48.834;8.736;2022-07-29T08:56:31;24.60;99.90
28484;DHT22;15704;48.834;8.736;2022-07-29T09:00:15;24.80;99.90
28484;DHT22;15704;48.834;8.736;2022-07-29T09:03:59;24.90;99.90
28484;DHT22;15704;48.834;8.736;2022-07-29T09:07:43;24.70;99.90
28484;DHT22;15704;48.834;8.736;2022-07-29T09:11:32;24.70;99.90
28484;DHT22;15704;48.834;8.736;2022-07-29T09:15:15;24.50;99.90
28484;DHT22;15704;48.834;8.736;2022-07-29T09:18:57;24.50;99.90
28484;DHT22;15704;48.834;8.736;2022-07-29T09:22:40;24.60;99.90
28484;DHT22;15704;48.834;8.736;2022-07-29T09:26:28;25.00;99.60
28484;DHT22;15704;48.834;8.736;2022-07-29T09:30:14;24.90;99.90
28484;DHT22;15704;48.834;8.736;2022-07-29T09:34:13;25.10;99.40
28484;DHT22;15704;48.834;8.736;2022-07-29T09:37:56;24.80;99.00
28484;DHT22;15704;48.834;8.736;2022-07-29T09:41:46;24.90;98.70
28484;DHT22;15704;48.834;8.736;2022-07-29T09:45:32;25.00;98.40
28484;DHT22;15704;48.834;8.736;2022-07-29T09:49:15;25.10;98.40
28484;DHT22;15704;48.834;8.736;2022-07-29T09:52:58;25.00;97.80
28484;DHT22;15704;48.834;8.736;2022-07-29T09:56:42;24.90;97.30
28484;DHT22;15704;48.834;8.736;2022-07-29T10:00:25;25.00;96.80
28484;DHT22;15704;48.834;8.736;2022-07-29T10:04:09;24.90;96.20
28484;DHT22;15704;48.834;8.736;2022-07-29T10:07:53;25.10;95.80
28484;DHT22;15704;48.834;8.736;2022-07-29T10:11:38;24.80;95.60
28484;DHT22;15704;48.834;8.736;2022-07-29T10:15:31;24.90;95.50
28484;DHT22;15704;48.834;8.736;2022-07-29T10:19:17;25.50;94.90
28484;DHT22;15704;48.834;8.736;2022-07-29T10:22:59;26.10;93.60
28484;DHT22;15704;48.834;8.736;2022-07-29T10:26:42;26.70;93.00
28484;DHT22;15704;48.834;8.736;2022-07-29T10:30:27;26.50;92.30
28484;DHT22;15704;48.834;8.736;2022-07-29T10:34:16;26.40;92.40
28484;DHT22;15704;48.834;8.736;2022-07-29T10:38:42;26.30;92.20
28484;DHT22;15704;48.834;8.736;2022-07-29T10:42:28;26.30;92.10
28484;DHT22;15704;48.834;8.736;2022-07-29T10:46:15;27.30;91.20
28484;DHT22;15704;48.834;8.736;2022-07-29T10:49:58;26.30;90.50
28484;DHT22;15704;48.834;8.736;2022-07-29T10:53:50;25.70;91.50
28484;DHT22;15704;48.834;8.736;2022-07-29T10:57:34;25.40;92.00
28484;DHT22;15704;48.834;8.736;2022-07-29T11:01:35;25.50;92.20
28484;DHT22;15704;48.834;8.736;2022-07-29T11:05:20;25.70;92.10
28484;DHT22;15704;48.834;8.736;2022-07-29T11:09:18;25.60;91.70
28484;DHT22;15704;48.834;8.736;2022-07-29T11:13:45;25.90;91.10
28484;DHT22;15704;48.834;8.736;2022-07-29T11:17:29;26.30;90.80
28484;DHT22;15704;48.834;8.736;2022-07-29T11:21:35;26.50;90.30
28484;DHT22;15704;48.834;8.736;2022-07-29T11:25:37;26.40;90.10
28484;DHT22;15704;48.834;8.736;2022-07-29T11:29:32;26.30;90.50
28484;DHT22;15704;48.834;8.736;2022-07-29T11:33:28;26.40;90.00
28484;DHT22;15704;48.834;8.736;2022-07-29T11:37:30;26.50;90.00
28484;DHT22;15704;48.834;8.736;2022-07-29T11:41:25;26.80;89.40
28484;DHT22;15704;48.834;8.736;2022-07-29T11:45:10;27.20;87.80
28484;DHT22;15704;48.834;8.736;2022-07-29T11:49:19;27.20;88.00
28484;DHT22;15704;48.834;8.736;2022-07-29T11:53:13;27.30;86.80
28484;DHT22;15704;48.834;8.736;2022-07-29T11:56:58;27.50;86.30
28484;DHT22;15704;48.834;8.736;2022-07-29T12:00:41;27.40;86.10
28484;DHT22;15704;48.834;8.736;2022-07-29T12:04:25;27.20;87.30
28484;DHT22;15704;48.834;8.736;2022-07-29T12:08:14;27.00;86.10
28484;DHT22;15704;48.834;8.736;2022-07-29T12:11:59;26.40;88.70
28484;DHT22;15704;48.834;8.736;2022-07-29T12:15:52;26.60;89.40
28484;DHT22;15704;48.834;8.736;2022-07-29T12:19:42;26.40;89.30
28484;DHT22;15704;48.834;8.736;2022-07-29T12:23:25;26.00;90.00
28484;DHT22;15704;48.834;8.736;2022-07-29T12:27:17;25.70;90.10
28484;DHT22;15704;48.834;8.736;2022-07-29T12:31:13;25.60;90.30
28484;DHT22;15704;48.834;8.736;2022-07-29T12:35:18;25.80;90.30
28484;DHT22;15704;48.834;8.736;2022-07-29T12:39:01;26.00;90.20
28484;DHT22;15704;48.834;8.736;2022-07-29T12:43:07;26.20;89.80
28484;DHT22;15704;48.834;8.736;2022-07-29T12:47:01;26.50;88.90
28484;DHT22;15704;48.834;8.736;2022-07-29T12:50:56;26.50;88.60
28484;DHT22;15704;48.834;8.736;2022-07-29T12:54:47;26.60;88.10
28484;DHT22;15704;48.834;8.736;2022-07-29T12:58:33;26.40;87.60
28484;DHT22;15704;48.834;8.736;2022-07-29T13:02:21;26.40;88.50
28484;DHT22;15704;48.834;8.736;2022-07-29T13:06:04;26.30;87.60
28484;DHT22;15704;48.834;8.736;2022-07-29T13:09:47;26.20;87.90
28484;DHT22;15704;48.834;8.736;2022-07-29T13:13:31;26.10;87.40
28484;DHT22;15704;48.834;8.736;2022-07-29T13:17:15;26.10;86.20
28484;DHT22;15704;48.834;8.736;2022-07-29T13:21:10;26.20;85.00
28484;DHT22;15704;48.834;8.736;2022-07-29T13:24:56;26.50;84.10
28484;DHT22;15704;48.834;8.736;2022-07-29T13:28:40;26.80;83.60
28484;DHT22;15704;48.834;8.736;2022-07-29T13:32:25;27.00;82.90
28484;DHT22;15704;48.834;8.736;2022-07-29T13:36:09;26.90;81.10
28484;DHT22;15704;48.834;8.736;2022-07-29T13:39:52;27.00;80.90
28484;DHT22;15704;48.834;8.736;2022-07-29T13:43:35;27.00;80.60
28484;DHT22;15704;48.834;8.736;2022-07-29T13:47:20;26.90;80.50
28484;DHT22;15704;48.834;8.736;2022-07-29T13:51:13;27.30;80.20
28484;DHT22;15704;48.834;8.736;2022-07-29T13:54:56;27.40;79.20
28484;DHT22;15704;48.834;8.736;2022-07-29T13:58:38;27.50;78.90
28484;DHT22;15704;48.834;8.736;2022-07-29T14:02:22;27.80;78.20
28484;DHT22;15704;48.834;8.736;2022-07-29T14:06:06;28.20;76.30
28484;DHT22;15704;48.834;8.736;2022-07-29T14:09:49;28.10;76.60
28484;DHT22;15704;48.834;8.736;2022-07-29T14:13:32;27.40;75.50
28484;DHT22;15704;48.834;8.736;2022-07-29T14:17:15;27.10;77.60
28484;DHT22;15704;48.834;8.736;2022-07-29T14:20:59;26.90;77.00
28484;DHT22;15704;48.834;8.736;2022-07-29T14:24:42;27.20;77.70
28484;DHT22;15704;48.834;8.736;2022-07-29T14:28:24;27.00;77.00
28484;DHT22;15704;48.834;8.736;2022-07-29T14:32:09;26.90;77.50
28484;DHT22;15704;48.834;8.736;2022-07-29T14:35:52;26.90;78.40
28484;DHT22;15704;48.834;8.736;2022-07-29T14:39:42;27.20;76.90
28484;DHT22;15704;48.834;8.736;2022-07-29T14:43:25;27.00;77.60
28484;DHT22;15704;48.834;8.736;2022-07-29T14:47:08;27.10;77.90
28484;DHT22;15704;48.834;8.736;2022-07-29T14:50:50;27.30;78.20
28484;DHT22;15704;48.834;8.736;2022-07-29T14:54:33;27.10;76.80
28484;DHT22;15704;48.834;8.736;2022-07-29T14:58:17;27.10;78.10
28484;DHT22;15704;48.834;8.736;2022-07-29T15:02:01;27.00;78.80
28484;DHT22;15704;48.834;8.736;2022-07-29T15:05:45;26.90;79.10
28484;DHT22;15704;48.834;8.736;2022-07-29T15:09:28;26.70;78.90
28484;DHT22;15704;48.834;8.736;2022-07-29T15:13:10;26.90;79.00
28484;DHT22;15704;48.834;8.736;2022-07-29T15:16:55;27.00;79.10
28484;DHT22;15704;48.834;8.736;2022-07-29T15:20:37;26.80;78.90
28484;DHT22;15704;48.834;8.736;2022-07-29T15:24:20;26.70;79.50
28484;DHT22;15704;48.834;8.736;2022-07-29T15:28:04;26.60;79.10
28484;DHT22;15704;48.834;8.736;2022-07-29T15:31:48;26.30;80.60
28484;DHT22;15704;48.834;8.736;2022-07-29T15:35:32;26.30;80.90
28484;DHT22;15704;48.834;8.736;2022-07-29T15:39:21;26.50;80.20
28484;DHT22;15704;48.834;8.736;2022-07-29T15:43:04;26.50;79.50
28484;DHT22;15704;48.834;8.736;2022-07-29T15:46:48;26.40;79.70
28484;DHT22;15704;48.834;8.736;2022-07-29T15:50:48;26.40;79.40
28484;DHT22;15704;48.834;8.736;2022-07-29T15:54:31;26.60;79.30
28484;DHT22;15704;48.834;8.736;2022-07-29T15:58:14;26.90;79.20
28484;DHT22;15704;48.834;8.736;2022-07-29T16:01:57;26.80;77.60
28484;DHT22;15704;48.834;8.736;2022-07-29T16:05:39;26.50;78.50
28484;DHT22;15704;48.834;8.736;2022-07-29T16:09:23;26.40;77.90
28484;DHT22;15704;48.834;8.736;2022-07-29T16:13:06;26.30;78.20
28484;DHT22;15704;48.834;8.736;2022-07-29T16:16:50;26.20;78.40
28484;DHT22;15704;48.834;8.736;2022-07-29T16:20:32;26.40;78.30
28484;DHT22;15704;48.834;8.736;2022-07-29T16:24:15;26.60;78.60
28484;DHT22;15704;48.834;8.736;2022-07-29T16:27:59;26.70;78.10
28484;DHT22;15704;48.834;8.736;2022-07-29T16:31:42;26.20;78.80
28484;DHT22;15704;48.834;8.736;2022-07-29T16:35:25;26.30;79.20
28484;DHT22;15704;48.834;8.736;2022-07-29T16:39:20;25.90;80.30
28484;DHT22;15704;48.834;8.736;2022-07-29T16:43:04;26.50;80.00
28484;DHT22;15704;48.834;8.736;2022-07-29T16:46:47;26.30;79.20
28484;DHT22;15704;48.834;8.736;2022-07-29T16:50:30;26.80;77.80
28484;DHT22;15704;48.834;8.736;2022-07-29T16:54:12;26.80;72.90
28484;DHT22;15704;48.834;8.736;2022-07-29T16:57:55;26.50;74.10
28484;DHT22;15704;48.834;8.736;2022-07-29T17:01:39;26.50;74.70
28484;DHT22;15704;48.834;8.736;2022-07-29T17:05:22;26.60;74.30
28484;DHT22;15704;48.834;8.736;2022-07-29T17:09:06;26.30;74.20
28484;DHT22;15704;48.834;8.736;2022-07-29T17:12:48;26.40;75.50
28484;DHT22;15704;48.834;8.736;2022-07-29T17:16:31;27.20;75.50
28484;DHT22;15704;48.834;8.736;2022-07-29T17:20:15;27.50;74.20
28484;DHT22;15704;48.834;8.736;2022-07-29T17:23:58;27.30;74.60
28484;DHT22;15704;48.834;8.736;2022-07-29T17:27:41;27.00;75.60
28484;DHT22;15704;48.834;8.736;2022-07-29T17:31:23;27.40;75.20
28484;DHT22;15704;48.834;8.736;2022-07-29T17:35:08;27.90;74.40
28484;DHT22;15704;48.834;8.736;2022-07-29T17:39:07;28.50;73.20
28484;DHT22;15704;48.834;8.736;2022-07-29T17:42:51;29.00;71.50
28484;DHT22;15704;48.834;8.736;2022-07-29T17:46:34;29.10;69.00
28484;DHT22;15704;48.834;8.736;2022-07-29T17:50:17;28.70;66.70
28484;DHT22;15704;48.834;8.736;2022-07-29T17:54:00;29.20;66.50
28484;DHT22;15704;48.834;8.736;2022-07-29T17:57:44;29.30;66.80
28484;DHT22;15704;48.834;8.736;2022-07-29T18:01:29;29.10;67.80
28484;DHT22;15704;48.834;8.736;2022-07-29T18:05:12;28.70;68.80
28484;DHT22;15704;48.834;8.736;2022-07-29T18:08:55;28.70;67.90
28484;DHT22;15704;48.834;8.736;2022-07-29T18:12:38;28.20;69.20
28484;DHT22;15704;48.834;8.736;2022-07-29T18:16:22;28.20;70.00
28484;DHT22;15704;48.834;8.736;2022-07-29T18:20:06;28.00;70.20
28484;DHT22;15704;48.834;8.736;2022-07-29T18:23:49;27.80;70.80
28484;DHT22;15704;48.834;8.736;2022-07-29T18:27:32;27.80;70.80
28484;DHT22;15704;48.834;8.736;2022-07-29T18:31:15;27.40;70.50
28484;DHT22;15704;48.834;8.736;2022-07-29T18:34:59;26.90;72.40
28484;DHT22;15704;48.834;8.736;2022-07-29T18:38:43;26.70;73.00
28484;DHT22;15704;48.834;8.736;2022-07-29T18:42:25;26.10;74.30
28484;DHT22;15704;48.834;8.736;2022-07-29T18:46:07;25.50;74.70
28484;DHT22;15704;48.834;8.736;2022-07-29T18:49:50;25.00;76.00
28484;DHT22;15704;48.834;8.736;2022-07-29T18:53:34;24.60;78.10
28484;DHT22;15704;48.834;8.736;2022-07-29T18:57:18;24.30;78.70
28484;DHT22;15704;48.834;8.736;2022-07-29T19:01:20;24.00;79.70
28484;DHT22;15704;48.834;8.736;2022-07-29T19:05:12;23.70;80.60
28484;DHT22;15704;48.834;8.736;2022-07-29T19:08:56;23.40;81.10
28484;DHT22;15704;48.834;8.736;2022-07-29T19:12:38;23.20;81.40
28484;DHT22;15704;48.834;8.736;2022-07-29T19:16:21;23.00;82.30
28484;DHT22;15704;48.834;8.736;2022-07-29T19:20:05;22.80;82.80
28484;DHT22;15704;48.834;8.736;2022-07-29T19:23:48;22.70;83.50
28484;DHT22;15704;48.834;8.736;2022-07-29T19:27:49;22.60;84.00
28484;DHT22;15704;48.834;8.736;2022-07-29T19:31:31;22.40;84.60
28484;DHT22;15704;48.834;8.736;2022-07-29T19:35:14;22.30;85.40
28484;DHT22;15704;48.834;8.736;2022-07-29T19:39:08;22.20;86.10
28484;DHT22;15704;48.834;8.736;2022-07-29T19:42:52;22.00;86.00
28484;DHT22;15704;48.834;8.736;2022-07-29T19:46:35;22.00;86.50
28484;DHT22;15704;48.834;8.736;2022-07-29T19:50:17;21.90;86.90
28484;DHT22;15704;48.834;8.736;2022-07-29T19:54:00;21.90;87.80
28484;DHT22;15704;48.834;8.736;2022-07-29T19:57:43;21.80;87.50
28484;DHT22;15704;48.834;8.736;2022-07-29T20:01:28;21.70;87.90
28484;DHT22;15704;48.834;8.736;2022-07-29T20:05:12;21.70;88.30
28484;DHT22;15704;48.834;8.736;2022-07-29T20:08:55;21.60;88.50
28484;DHT22;15704;48.834;8.736;2022-07-29T20:12:39;21.50;88.80
28484;DHT22;15704;48.834;8.736;2022-07-29T20:16:22;21.40;89.00
28484;DHT22;15704;48.834;8.736;2022-07-29T20:20:08;21.30;89.50
28484;DHT22;15704;48.834;8.736;2022-07-29T20:23:51;21.20;89.80
28484;DHT22;15704;48.834;8.736;2022-07-29T20:27:34;21.20;90.10
28484;DHT22;15704;48.834;8.736;2022-07-29T20:31:19;21.10;90.20
28484;DHT22;15704;48.834;8.736;2022-07-29T20:35:02;21.00;90.70
28484;DHT22;15704;48.834;8.736;2022-07-29T20:38:47;20.90;90.70
28484;DHT22;15704;48.834;8.736;2022-07-29T20:42:29;20.80;90.80
28484;DHT22;15704;48.834;8.736;2022-07-29T20:46:12;20.80;90.90
28484;DHT22;15704;48.834;8.736;2022-07-29T20:49:55;20.70;91.20
28484;DHT22;15704;48.834;8.736;2022-07-29T20:53:38;20.60;91.30
28484;DHT22;15704;48.834;8.736;2022-07-29T20:57:22;20.60;91.30
28484;DHT22;15704;48.834;8.736;2022-07-29T21:01:19;20.60;91.40
28484;DHT22;15704;48.834;8.736;2022-07-29T21:05:02;20.60;91.50
28484;DHT22;15704;48.834;8.736;2022-07-29T21:08:45;20.50;91.60
28484;DHT22;15704;48.834;8.736;2022-07-29T21:12:29;20.50;91.80
28484;DHT22;15704;48.834;8.736;2022-07-29T21:16:11;20.40;91.70
28484;DHT22;15704;48.834;8.736;2022-07-29T21:19:55;20.40;91.80
28484;DHT22;15704;48.834;8.736;2022-07-29T21:23:38;20.40;91.80
28484;DHT22;15704;48.834;8.736;2022-07-29T21:27:21;20.40;91.70
28484;DHT22;15704;48.834;8.736;2022-07-29T21:31:22;20.50;91.60
28484;DHT22;15704;48.834;8.736;2022-07-29T21:35:05;20.50;91.60
28484;DHT22;15704;48.834;8.736;2022-07-29T21:39:07;20.50;91.50
28484;DHT22;15704;48.834;8.736;2022-07-29T21:42:50;20.50;91.40
28484;DHT22;15704;48.834;8.736;2022-07-29T21:46:34;20.60;91.40
28484;DHT22;15704;48.834;8.736;2022-07-29T21:50:17;20.60;91.30
28484;DHT22;15704;48.834;8.736;2022-07-29T21:54:00;20.60;91.30
28484;DHT22;15704;48.834;8.736;2022-07-29T21:57:43;20.50;91.60
28484;DHT22;15704;48.834;8.736;2022-07-29T22:01:25;20.30;91.90
28484;DHT22;15704;48.834;8.736;2022-07-29T22:05:20;20.10;92.30
28484;DHT22;15704;48.834;8.736;2022-07-29T22:09:03;19.90;92.70
28484;DHT22;15704;48.834;8.736;2022-07-29T22:12:49;19.80;93.20
28484;DHT22;15704;48.834;8.736;2022-07-29T22:16:32;19.70;93.50
28484;DHT22;15704;48.834;8.736;2022-07-29T22:20:15;19.60;93.80
28484;DHT22;15704;48.834;8.736;2022-07-29T22:23:59;19.50;94.10
28484;DHT22;15704;48.834;8.736;2022-07-29T22:27:42;19.40;94.40
28484;DHT22;15704;48.834;8.736;2022-07-29T22:31:24;19.40;95.10
28484;DHT22;15704;48.834;8.736;2022-07-29T22:35:08;19.30;95.10
28484;DHT22;15704;48.834;8.736;2022-07-29T22:52:43;18.90;99.40
28484;DHT22;15704;48.834;8.736;2022-07-29T22:56:26;18.70;99.90
28484;DHT22;15704;48.834;8.736;2022-07-29T23:00:10;18.70;99.90
28484;DHT22;15704;48.834;8.736;2022-07-29T23:03:53;18.60;99.90
28484;DHT22;15704;48.834;8.736;2022-07-29T23:07:36;18.60;99.90
28484;DHT22;15704;48.834;8.736;2022-07-29T23:11:20;18.60;99.90
28484;DHT22;15704;48.834;8.736;2022-07-29T23:15:03;18.50;99.90
28484;DHT22;15704;48.834;8.736;2022-07-29T23:18:46;18.50;99.90
28484;DHT22;15704;48.834;8.736;2022-07-29T23:22:32;18.40;99.90
28484;DHT22;15704;48.834;8.736;2022-07-29T23:26:15;18.40;99.90
28484;DHT22;15704;48.834;8.736;2022-07-29T23:29:59;18.30;99.90
28484;DHT22;15704;48.834;8.736;2022-07-29T23:33:42;18.30;99.90
28484;DHT22;15704;48.834;8.736;2022-07-29T23:37:24;18.20;99.90
28484;DHT22;15704;48.834;8.736;2022-07-29T23:41:07;18.10;99.90
28484;DHT22;15704;48.834;8.736;2022-07-29T23:44:50;18.10;99.90
28484;DHT22;15704;48.834;8.736;2022-07-29T23:48:34;18.00;99.90
28484;DHT22;15704;48.834;8.736;2022-07-29T23:52:17;18.00;99.90
28484;DHT22;15704;48.834;8.736;2022-07-29T23:56:00;17.90;99.90